»·PEaware :: QXE2200 KDEN-KBOI

QXE2200 :: KDEN-KBOI

FLIGHT INFORMATION

Flight Status: Arrived
Operator:
Horizon Air
More flights by this operator :: More flights under this callsign
Pilot: Anonymous 12000 (12000)
Aircraft: DEHAVILLAND DASH 8 400
(DH8D)
More flights by this aircraft type
Origin: KDEN Denver Intl
United States
Destination: KBOI Boise Air Terminal/Gowen
United States
More flights between these airports :: More routes between these airports
Route: ROCKI3 RLG REAPS KOURT3
File this flight plan on PilotEdge
Remarks: PBN / D1 NAV / RNVD1E2A1 DOF / 180306 REG / N847SB EET / KZLC0056 ORGN / KSBRUALF PER / C RMK / AGCS O2.E360 O3.D350 TCAS SIMBRIEF
Altitude:
(Current/Filed)
24,000ft
Speed:
(Current/Filed)
320kts
Departed: 06-Mar-18 10:52 AM
Arrived: 06-Mar-18 01:03 PM
Distance/Time
Traveled:
563nm/2:11
Distance/Time
To Go:
Arrived

Flight Plot

Page will automatically refresh every two minutes.

Flight plan parsing failed; only flown route is shown


Map Options




Map Legend


Flown Route
Filed Route
Departure Airport
Arrival Airport
Navaid (VOR, NDB)
Fix

Horizontal Profiles

Position Reports

Time Latitude Longitude Heading Altitude Ground
Speed
06-Mar-18 10:23 39.863651 -104.674367 224 5438ft 0kts
06-Mar-18 10:24 39.863651 -104.674367 224 5438ft 0kts
06-Mar-18 10:25 39.863651 -104.674367 224 5438ft 0kts
06-Mar-18 10:26 39.863651 -104.674367 224 5438ft 0kts
06-Mar-18 10:31 39.863651 -104.674368 224 5438ft 0kts
06-Mar-18 10:32 39.863651 -104.674368 224 5438ft 0kts
06-Mar-18 10:33 39.863651 -104.674368 224 5438ft 0kts
06-Mar-18 10:34 39.863651 -104.674368 224 5438ft 0kts
06-Mar-18 10:35 39.863651 -104.674368 224 5438ft 0kts
06-Mar-18 10:36 39.863651 -104.674368 224 5438ft 0kts
06-Mar-18 10:37 39.863651 -104.674368 224 5438ft 0kts
06-Mar-18 10:38 39.863651 -104.674368 224 5438ft 0kts
06-Mar-18 10:39 39.863651 -104.674368 224 5438ft 0kts
06-Mar-18 10:40 39.863651 -104.674368 224 5438ft 0kts
06-Mar-18 10:41 39.863651 -104.674368 224 5438ft 0kts
06-Mar-18 10:42 39.863651 -104.674368 224 5438ft 0kts
06-Mar-18 10:43 39.863651 -104.674368 224 5438ft 0kts
06-Mar-18 10:44 39.863651 -104.674368 224 5438ft 0kts
06-Mar-18 10:45 39.863651 -104.674368 224 5438ft 0kts
06-Mar-18 10:46 39.863651 -104.674368 224 5438ft 0kts
06-Mar-18 10:47 39.863651 -104.674368 224 5438ft 0kts
06-Mar-18 10:48 39.863651 -104.674368 224 5438ft 0kts
06-Mar-18 10:49 39.863651 -104.674368 224 5438ft 0kts
06-Mar-18 10:50 39.863928 -104.674004 225 5438ft 2kts
06-Mar-18 10:51 39.863992 -104.673917 225 5438ft 0kts
06-Mar-18 10:52 39.864174 -104.674555 284 5438ft 9kts
06-Mar-18 10:53 39.864266 -104.680325 271 5438ft 12kts
06-Mar-18 10:54 39.864153 -104.683745 212 5438ft 12kts
06-Mar-18 10:55 39.858516 -104.683960 177 5438ft 26kts
06-Mar-18 10:56 39.852441 -104.684025 181 5438ft 25kts
06-Mar-18 10:57 39.845712 -104.684120 177 5438ft 23kts
06-Mar-18 10:58 39.841402 -104.684188 182 5438ft 1kts
06-Mar-18 10:59 39.840728 -104.695109 270 5439ft 109kts
06-Mar-18 11:00 39.841429 -104.748091 279 6940ft 160kts
06-Mar-18 11:01 39.850621 -104.817256 283 8404ft 229kts
06-Mar-18 11:02 39.861187 -104.901489 283 10618ft 237kts
06-Mar-18 11:03 39.874028 -104.982660 291 12842ft 225kts
06-Mar-18 11:04 39.891711 -105.058598 290 14698ft 223kts
06-Mar-18 11:05 39.909246 -105.135639 291 16322ft 222kts
06-Mar-18 11:06 39.926168 -105.211009 291 17689ft 224kts
06-Mar-18 11:07 39.943782 -105.288117 292 18753ft 231kts
06-Mar-18 11:08 39.961611 -105.365747 292 19797ft 233kts
06-Mar-18 11:09 39.979511 -105.443914 291 20797ft 233kts
06-Mar-18 11:10 39.997503 -105.522702 291 21715ft 235kts
06-Mar-18 11:11 40.015473 -105.602163 291 22572ft 236kts
06-Mar-18 11:12 40.028591 -105.683586 276 23351ft 245kts
06-Mar-18 11:13 40.026309 -105.770157 274 24120ft 246kts
06-Mar-18 11:14 40.023519 -105.859211 274 24293ft 264kts
06-Mar-18 11:15 40.020372 -105.954434 273 24298ft 281kts
06-Mar-18 11:16 40.016910 -106.054703 273 24330ft 294kts
06-Mar-18 11:17 40.013127 -106.160019 273 24321ft 303kts
06-Mar-18 11:18 40.009184 -106.267758 272 24357ft 308kts
06-Mar-18 11:19 40.005145 -106.376709 272 24359ft 311kts
06-Mar-18 11:20 40.022976 -106.478260 300 24367ft 300kts
06-Mar-18 11:21 40.063437 -106.570131 301 24366ft 300kts
06-Mar-18 11:22 40.105672 -106.661010 302 24374ft 300kts
06-Mar-18 11:23 40.147650 -106.751384 302 24418ft 299kts
06-Mar-18 11:24 40.189371 -106.841597 301 24378ft 300kts
06-Mar-18 11:25 40.231184 -106.932320 301 24393ft 300kts
06-Mar-18 11:26 40.272756 -107.022728 301 24404ft 299kts
06-Mar-18 11:27 40.313323 -107.111254 301 24408ft 298kts
06-Mar-18 11:28 40.353279 -107.198637 301 24418ft 297kts
06-Mar-18 11:29 40.393482 -107.286951 301 24418ft 297kts
06-Mar-18 11:30 40.433667 -107.375285 301 24416ft 296kts
06-Mar-18 11:31 40.473505 -107.463235 301 24412ft 296kts
06-Mar-18 11:32 40.513668 -107.552180 301 24413ft 295kts
06-Mar-18 11:33 40.554334 -107.642430 301 24411ft 294kts
06-Mar-18 11:34 40.593916 -107.730530 301 24411ft 294kts
06-Mar-18 11:35 40.632473 -107.816608 300 24408ft 294kts
06-Mar-18 11:36 40.673154 -107.907684 300 24403ft 295kts
06-Mar-18 11:37 40.713352 -107.997974 300 24404ft 295kts
06-Mar-18 11:38 40.753742 -108.088766 300 24401ft 295kts
06-Mar-18 11:39 40.794035 -108.179851 300 24396ft 295kts
06-Mar-18 11:40 40.834383 -108.271366 300 24394ft 296kts
06-Mar-18 11:41 40.874595 -108.362735 300 24389ft 297kts
06-Mar-18 11:42 40.915067 -108.455031 300 24391ft 297kts
06-Mar-18 11:43 40.955323 -108.546986 300 24388ft 297kts
06-Mar-18 11:44 40.995643 -108.639454 300 24379ft 299kts
06-Mar-18 11:45 41.035752 -108.731791 300 24382ft 299kts
06-Mar-18 11:46 41.076006 -108.824658 299 24383ft 299kts
06-Mar-18 11:47 41.116290 -108.917894 299 24387ft 299kts
06-Mar-18 11:48 41.156389 -109.010883 299 24379ft 300kts
06-Mar-18 11:49 41.196637 -109.104707 299 24376ft 301kts
06-Mar-18 11:50 41.236744 -109.198455 299 24378ft 301kts
06-Mar-18 11:51 41.276745 -109.292147 299 24377ft 301kts
06-Mar-18 11:52 41.316712 -109.386133 299 24378ft 301kts
06-Mar-18 11:53 41.356840 -109.480664 299 24373ft 302kts
06-Mar-18 11:54 41.396844 -109.575372 299 24373ft 302kts
06-Mar-18 11:55 41.437006 -109.670736 299 24374ft 303kts
06-Mar-18 11:56 41.476883 -109.765587 299 24376ft 303kts
06-Mar-18 11:57 41.516862 -109.861090 298 24377ft 304kts
06-Mar-18 11:58 41.556772 -109.956742 298 24378ft 304kts
06-Mar-18 11:59 41.596704 -110.052765 298 24379ft 304kts
06-Mar-18 12:00 41.636609 -110.148990 298 24380ft 304kts
06-Mar-18 12:01 41.676032 -110.244360 298 24376ft 305kts
06-Mar-18 12:02 41.715273 -110.339609 298 24376ft 305kts
06-Mar-18 12:03 41.754745 -110.435644 298 24374ft 304kts
06-Mar-18 12:04 41.794151 -110.532018 298 24373ft 304kts
06-Mar-18 12:05 41.833433 -110.628321 298 24374ft 304kts
06-Mar-18 12:06 41.872575 -110.724536 298 24371ft 302kts
06-Mar-18 12:07 41.911030 -110.819456 298 24371ft 298kts
06-Mar-18 12:08 41.949246 -110.914037 298 24373ft 294kts
06-Mar-18 12:09 41.986928 -111.007586 298 24373ft 292kts
06-Mar-18 12:10 42.024406 -111.100964 298 24378ft 291kts
06-Mar-18 12:11 42.061313 -111.193196 298 24400ft 289kts
06-Mar-18 12:12 42.097917 -111.284959 298 24403ft 288kts
06-Mar-18 12:13 42.134231 -111.376291 297 24405ft 287kts
06-Mar-18 12:14 42.170102 -111.466795 297 24407ft 286kts
06-Mar-18 12:15 42.205823 -111.557181 297 24406ft 285kts
06-Mar-18 12:16 42.241402 -111.647480 297 24408ft 283kts
06-Mar-18 12:17 42.276155 -111.735994 297 24411ft 282kts
06-Mar-18 12:18 42.311400 -111.826043 297 24414ft 282kts
06-Mar-18 12:19 42.346774 -111.916666 297 24417ft 285kts
06-Mar-18 12:20 42.382543 -112.008572 297 24417ft 287kts
06-Mar-18 12:21 42.418774 -112.101841 297 24416ft 288kts
06-Mar-18 12:22 42.454595 -112.194758 297 24417ft 288kts
06-Mar-18 12:23 42.490468 -112.287809 297 24416ft 289kts
06-Mar-18 12:24 42.526547 -112.381724 297 24414ft 289kts
06-Mar-18 12:25 42.562355 -112.475152 297 24411ft 290kts
06-Mar-18 12:26 42.598355 -112.569558 296 24406ft 291kts
06-Mar-18 12:27 42.634229 -112.664033 296 24406ft 292kts
06-Mar-18 12:28 42.670315 -112.759168 296 24405ft 293kts
06-Mar-18 12:29 42.706442 -112.854708 296 24401ft 294kts
06-Mar-18 12:30 42.742449 -112.950451 296 24400ft 295kts
06-Mar-18 12:31 42.778236 -113.045731 296 24395ft 296kts
06-Mar-18 12:32 42.814658 -113.143323 296 24395ft 296kts
06-Mar-18 12:33 42.850897 -113.240453 296 24393ft 297kts
06-Mar-18 12:34 42.886793 -113.337138 296 24390ft 297kts
06-Mar-18 12:35 42.923059 -113.435133 295 24389ft 297kts
06-Mar-18 12:36 42.959165 -113.533004 295 24386ft 297kts
06-Mar-18 12:37 42.995309 -113.631477 295 24386ft 297kts
06-Mar-18 12:38 43.031366 -113.729890 295 24384ft 298kts
06-Mar-18 12:39 43.067645 -113.829298 295 24383ft 298kts
06-Mar-18 12:40 43.103645 -113.928214 295 24383ft 298kts
06-Mar-18 12:41 43.139422 -114.027015 294 24383ft 298kts
06-Mar-18 12:42 43.170238 -114.127569 285 24383ft 298kts
06-Mar-18 12:43 43.190683 -114.233373 285 24383ft 298kts
06-Mar-18 12:44 43.211358 -114.340078 285 23092ft 303kts
06-Mar-18 12:45 43.232170 -114.447918 285 21385ft 301kts
06-Mar-18 12:46 43.252736 -114.555118 285 19687ft 303kts
06-Mar-18 12:47 43.272857 -114.660242 285 18382ft 297kts
06-Mar-18 12:48 43.292659 -114.764532 285 17333ft 289kts
06-Mar-18 12:49 43.311976 -114.866748 284 16404ft 284kts
06-Mar-18 12:50 43.330984 -114.967999 284 15497ft 282kts
06-Mar-18 12:51 43.349854 -115.069116 284 14595ft 282kts
06-Mar-18 12:52 43.368607 -115.170088 284 13714ft 282kts
06-Mar-18 12:53 43.387235 -115.271435 284 12905ft 279kts
06-Mar-18 12:54 43.405411 -115.370401 283 11960ft 272kts
06-Mar-18 12:55 43.424074 -115.469594 281 10740ft 283kts
06-Mar-18 12:56 43.442092 -115.572569 282 9694ft 288kts
06-Mar-18 12:57 43.471146 -115.671399 294 9192ft 288kts
06-Mar-18 12:58 43.502851 -115.766720 293 8912ft 276kts
06-Mar-18 12:59 43.532701 -115.859034 293 8749ft 275kts
06-Mar-18 13:00 43.562545 -115.951581 293 8412ft 268kts
06-Mar-18 13:01 43.585760 -116.023842 293 8156ft 241kts
06-Mar-18 13:02 43.616362 -116.114838 295 7928ft 232kts
06-Mar-18 13:03 43.641577 -116.188329 295 7038ft 203kts
06-Mar-18 13:04 43.662822 -116.242166 297 6323ft 195kts
06-Mar-18 13:05 43.662538 -116.308181 237 5354ft 182kts
06-Mar-18 13:06 43.620021 -116.334149 169 4462ft 140kts
06-Mar-18 13:07 43.597375 -116.316531 128 3859ft 104kts
06-Mar-18 13:08 43.582790 -116.279855 114 3521ft 122kts
06-Mar-18 13:09 43.569751 -116.241921 112 2896ft 102kts
06-Mar-18 13:10 43.566674 -116.229917 26 2879ft 3kts
06-Mar-18 13:11 43.569200 -116.228223 25 2879ft 3kts
06-Mar-18 13:12 43.569628 -116.228156 188 2879ft 11kts
06-Mar-18 13:13 43.566909 -116.223455 110 2879ft 23kts
06-Mar-18 13:14 43.567525 -116.222865 11 2878ft 0kts
06-Mar-18 13:15 43.567525 -116.222865 11 2878ft 0kts
06-Mar-18 13:16 43.567525 -116.222865 11 2878ft 0kts

Navigation Log

Ident Type
Flight plan parsing failed, navigation log unavailable